Wilson Astakos — 9HA2370 — position and weather

sailwx.info

Track history (hours):
 
Tides and Currents Weather Stations Pressure Air Temp Water Temp Dewpoint Dewpoint Depression Visibility Wind Speed Wind Dir Waves Ship Positions

Wilson Astakos

Last reported at 2017-Nov-17 21:56 UTC. Time now 2017-Nov-18 01:24 UTC.
Position N 50°06' W 001°14'.

Length 89 m; draft 4 m.

Type: Cargo ship. MMSI: 248448000.

Date/timePositionNaut miles runAvg speedWind from/ knotsBaromVisibWave heightAir tempDewpointWater temp
2017-Nov-17 21:56N 50°06' W 001°14'511.8
2017-Nov-17 21:30N 50°05' W 001°22'612.4
2017-Nov-17 21:00N 50°03' W 001°31'612.9
2017-Nov-17 20:30N 50°01' W 001°41'713.3
2017-Nov-17 19:59N 49°59' W 001°51'1313.6
2017-Nov-17 19:00N 49°55' W 002°11'2312.4
2017-Nov-17 17:08N 49°50' W 002°46'111.5
2017-Nov-17 17:00N 49°49' W 002°48'611.1
2017-Nov-17 16:30N 49°47' W 002°56'1310.6
2017-Nov-17 15:15N 49°39' W 003°13'171 9.2
2017-Nov-16 20:48N 47°49' W 006°30'8 8.8
2017-Nov-16 19:52N 47°42' W 006°36'4 8.6
2017-Nov-16 19:27N 47°39' W 006°39'4 8.3
2017-Nov-16 18:58N 47°36' W 006°43'4 8.4
2017-Nov-16 18:30N 47°32' W 006°46'5 9.0
2017-Nov-16 17:58N 47°28' W 006°49'16 9.6
2017-Nov-16 16:16N 47°15' W 007°03'2 9.8
2017-Nov-16 16:00N 47°13' W 007°05'1710.1
2017-Nov-16 14:22N 46°59' W 007°18'  
2017-Nov-13 22:46N 37°56' W 012°38'245 8.9
2017-Nov-12 19:13N 34°02' W 014°07'30 9.3
2017-Nov-12 15:57N 33°33' W 014°18'84 9.0
2017-Nov-12 06:36N 32°13' W 014°47'3 8.7
2017-Nov-12 06:14N 32°10' W 014°48'2 8.6
2017-Nov-12 06:00N 32°08' W 014°49'13 8.7
2017-Nov-12 04:30N 31°55' W 014°54'12 8.4
2017-Nov-12 03:02N 31°43' W 014°58'0 8.4
2017-Nov-12 03:00N 31°43' W 014°58'5 8.3
2017-Nov-12 02:25N 31°38' W 014°59'3 8.3
2017-Nov-12 02:00N 31°35' W 015°01'4 8.4
2017-Nov-12 01:30N 31°31' W 015°02'4 8.1
2017-Nov-12 01:00N 31°27' W 015°03'9 8.2
2017-Nov-11 23:57N 31°19' W 015°06'4 8.0
2017-Nov-11 23:29N 31°15' W 015°08'5 8.2
2017-Nov-11 22:51N 31°10' W 015°09'3 8.1
2017-Nov-11 22:26N 31°07' W 015°11'3 8.0
2017-Nov-11 22:00N 31°04' W 015°12'4 8.1
2017-Nov-11 21:30N 31°00' W 015°13'9 8.0
2017-Nov-11 20:23N 30°52' W 015°16'4 7.9
2017-Nov-11 19:53N 30°48' W 015°18'3 7.7
2017-Nov-11 19:30N 30°45' W 015°18'4 7.9
2017-Nov-11 19:00N 30°41' W 015°20'4 7.7
2017-Nov-11 18:30N 30°38' W 015°21'4 7.9
2017-Nov-11 17:58N 30°33' W 015°23'4 7.9
2017-Nov-11 17:30N 30°30' W 015°24'4 7.7
2017-Nov-11 17:00N 30°26' W 015°25'4 7.7
2017-Nov-11 16:30N 30°23' W 015°27'4 8.1
2017-Nov-11 15:58N 30°18' W 015°28'4 7.9
2017-Nov-11 15:30N 30°15' W 015°29'4 7.6
2017-Nov-11 15:00N 30°11' W 015°30'4 7.8
2017-Nov-11 14:31N 30°08' W 015°32'4 7.8
2017-Nov-11 14:01N 30°04' W 015°33'4 7.6
2017-Nov-11 13:31N 30°00' W 015°34'4 7.7
2017-Nov-11 13:00N 29°57' W 015°36'4 7.8
2017-Nov-11 12:29N 29°53' W 015°37'4 7.6
2017-Nov-11 12:01N 29°49' W 015°38'4 7.8
2017-Nov-11 11:31N 29°46' W 015°40'4 7.8
2017-Nov-11 11:00N 29°42' W 015°41'4 8.3
2017-Nov-11 10:31N 29°38' W 015°42'4 8.0
2017-Nov-11 10:00N 29°34' W 015°44'4 8.2
2017-Nov-11 09:30N 29°30' W 015°46'4 7.8
2017-Nov-11 09:00N 29°26' W 015°47'4 7.8
2017-Nov-11 08:30N 29°23' W 015°48'4 7.9
2017-Nov-11 08:00N 29°19' W 015°49'4 7.6
2017-Nov-11 07:30N 29°15' W 015°50'4 7.6
2017-Nov-11 07:00N 29°12' W 015°52'4 7.4
2017-Nov-11 06:30N 29°08' W 015°53'4 7.5
2017-Nov-11 06:01N 29°05' W 015°54'4 7.4
2017-Nov-11 05:30N 29°01' W 015°55'4 7.3
2017-Nov-11 05:00N 28°57' W 015°56'4 7.3
2017-Nov-11 04:29N 28°54' W 015°58'4 7.5
2017-Nov-11 03:59N 28°50' W 015°59'4 7.3
2017-Nov-11 03:31N 28°47' W 016°00'4 7.4
2017-Nov-11 02:59N 28°43' W 016°02'4 7.6
2017-Nov-11 02:30N 28°40' W 016°03'4 7.7
2017-Nov-11 01:59N 28°36' W 016°04'4 8.2
2017-Nov-11 01:30N 28°32' W 016°05'4 7.7
2017-Nov-11 00:57N 28°29' W 016°09'4 7.8
2017-Nov-11 00:28N 28°29' W 016°13'0 0.6
2017-Nov-10 23:47N 28°29' W 016°13'0 0.0
2017-Nov-09 09:12N 28°29' W 016°13'0 0.0
2017-Nov-09 08:48N 28°29' W 016°13'0 0.0
2017-Nov-09 08:30N 28°29' W 016°13'1 1.4
2017-Nov-09 08:00N 28°28' W 016°13'4 7.4
2017-Nov-09 07:30N 28°29' W 016°09'5 9.0
2017-Nov-09 06:58N 28°33' W 016°06'4 9.0
2017-Nov-09 06:30N 28°37' W 016°07'  
Track history (hours):
 
Tides and Currents Weather Stations Pressure Air Temp Water Temp Dewpoint Dewpoint Depression Visibility Wind Speed Wind Dir Waves Ship Positions

Wilson Astakos

Last reported at 2017-Nov-17 21:56 UTC. Time now 2017-Nov-18 01:24 UTC.
Position N 50°06' W 001°14'.

Length 89 m; draft 4 m.

Type: Cargo ship. MMSI: 248448000.

Date/timePositionNaut miles runAvg speedWind from/ knotsBaromVisibWave heightAir tempDewpointWater temp
2017-Nov-17 21:56N 50°06' W 001°14'511.8
2017-Nov-17 21:30N 50°05' W 001°22'612.4
2017-Nov-17 21:00N 50°03' W 001°31'612.9
2017-Nov-17 20:30N 50°01' W 001°41'713.3
2017-Nov-17 19:59N 49°59' W 001°51'1313.6
2017-Nov-17 19:00N 49°55' W 002°11'2312.4
2017-Nov-17 17:08N 49°50' W 002°46'111.5
2017-Nov-17 17:00N 49°49' W 002°48'611.1
2017-Nov-17 16:30N 49°47' W 002°56'1310.6
2017-Nov-17 15:15N 49°39' W 003°13'171 9.2
2017-Nov-16 20:48N 47°49' W 006°30'8 8.8
2017-Nov-16 19:52N 47°42' W 006°36'4 8.6
2017-Nov-16 19:27N 47°39' W 006°39'4 8.3
2017-Nov-16 18:58N 47°36' W 006°43'4 8.4
2017-Nov-16 18:30N 47°32' W 006°46'5 9.0
2017-Nov-16 17:58N 47°28' W 006°49'16 9.6
2017-Nov-16 16:16N 47°15' W 007°03'2 9.8
2017-Nov-16 16:00N 47°13' W 007°05'1710.1
2017-Nov-16 14:22N 46°59' W 007°18'  
2017-Nov-13 22:46N 37°56' W 012°38'245 8.9
2017-Nov-12 19:13N 34°02' W 014°07'30 9.3
2017-Nov-12 15:57N 33°33' W 014°18'84 9.0
2017-Nov-12 06:36N 32°13' W 014°47'3 8.7
2017-Nov-12 06:14N 32°10' W 014°48'2 8.6
2017-Nov-12 06:00N 32°08' W 014°49'13 8.7
2017-Nov-12 04:30N 31°55' W 014°54'12 8.4
2017-Nov-12 03:02N 31°43' W 014°58'0 8.4
2017-Nov-12 03:00N 31°43' W 014°58'5 8.3
2017-Nov-12 02:25N 31°38' W 014°59'3 8.3
2017-Nov-12 02:00N 31°35' W 015°01'4 8.4
2017-Nov-12 01:30N 31°31' W 015°02'4 8.1
2017-Nov-12 01:00N 31°27' W 015°03'9 8.2
2017-Nov-11 23:57N 31°19' W 015°06'4 8.0
2017-Nov-11 23:29N 31°15' W 015°08'5 8.2
2017-Nov-11 22:51N 31°10' W 015°09'3 8.1
2017-Nov-11 22:26N 31°07' W 015°11'3 8.0
2017-Nov-11 22:00N 31°04' W 015°12'4 8.1
2017-Nov-11 21:30N 31°00' W 015°13'9 8.0
2017-Nov-11 20:23N 30°52' W 015°16'4 7.9
2017-Nov-11 19:53N 30°48' W 015°18'3 7.7
2017-Nov-11 19:30N 30°45' W 015°18'4 7.9
2017-Nov-11 19:00N 30°41' W 015°20'4 7.7
2017-Nov-11 18:30N 30°38' W 015°21'4 7.9
2017-Nov-11 17:58N 30°33' W 015°23'4 7.9
2017-Nov-11 17:30N 30°30' W 015°24'4 7.7
2017-Nov-11 17:00N 30°26' W 015°25'4 7.7
2017-Nov-11 16:30N 30°23' W 015°27'4 8.1
2017-Nov-11 15:58N 30°18' W 015°28'4 7.9
2017-Nov-11 15:30N 30°15' W 015°29'4 7.6
2017-Nov-11 15:00N 30°11' W 015°30'4 7.8
2017-Nov-11 14:31N 30°08' W 015°32'4 7.8
2017-Nov-11 14:01N 30°04' W 015°33'4 7.6
2017-Nov-11 13:31N 30°00' W 015°34'4 7.7
2017-Nov-11 13:00N 29°57' W 015°36'4 7.8
2017-Nov-11 12:29N 29°53' W 015°37'4 7.6
2017-Nov-11 12:01N 29°49' W 015°38'4 7.8
2017-Nov-11 11:31N 29°46' W 015°40'4 7.8
2017-Nov-11 11:00N 29°42' W 015°41'4 8.3
2017-Nov-11 10:31N 29°38' W 015°42'4 8.0
2017-Nov-11 10:00N 29°34' W 015°44'4 8.2
2017-Nov-11 09:30N 29°30' W 015°46'4 7.8
2017-Nov-11 09:00N 29°26' W 015°47'4 7.8
2017-Nov-11 08:30N 29°23' W 015°48'4 7.9
2017-Nov-11 08:00N 29°19' W 015°49'4 7.6
2017-Nov-11 07:30N 29°15' W 015°50'4 7.6
2017-Nov-11 07:00N 29°12' W 015°52'4 7.4
2017-Nov-11 06:30N 29°08' W 015°53'4 7.5
2017-Nov-11 06:01N 29°05' W 015°54'4 7.4
2017-Nov-11 05:30N 29°01' W 015°55'4 7.3
2017-Nov-11 05:00N 28°57' W 015°56'4 7.3
2017-Nov-11 04:29N 28°54' W 015°58'4 7.5
2017-Nov-11 03:59N 28°50' W 015°59'4 7.3
2017-Nov-11 03:31N 28°47' W 016°00'4 7.4
2017-Nov-11 02:59N 28°43' W 016°02'4 7.6
2017-Nov-11 02:30N 28°40' W 016°03'4 7.7
2017-Nov-11 01:59N 28°36' W 016°04'4 8.2
2017-Nov-11 01:30N 28°32' W 016°05'4 7.7
2017-Nov-11 00:57N 28°29' W 016°09'4 7.8
2017-Nov-11 00:28N 28°29' W 016°13'0 0.6
2017-Nov-10 23:47N 28°29' W 016°13'0 0.0
2017-Nov-09 09:12N 28°29' W 016°13'0 0.0
2017-Nov-09 08:48N 28°29' W 016°13'0 0.0
2017-Nov-09 08:30N 28°29' W 016°13'1 1.4
2017-Nov-09 08:00N 28°28' W 016°13'4 7.4
2017-Nov-09 07:30N 28°29' W 016°09'5 9.0
2017-Nov-09 06:58N 28°33' W 016°06'4 9.0
2017-Nov-09 06:30N 28°37' W 016°07'  

Dump ship's entire track history